METAR Data
IDs: Format: Raw Decoded Include TAF

Data at: 0651 UTC 09 Apr 2020

State: CA
No TAF found for K3A6
No TAF found for K87Q
K9L2 090628Z AUTO 26005KT 10SM FEW050 SCT065 M A3005 RMK AO2 SLPNO $
No TAF found for K9L2

KAAT 090555Z AUTO 02008KT 10SM CLR 12/M03 A3005 RMK AO2 SLP150 T01171033 10200 20100 51008 $
No TAF found for KAAT

KACV 090553Z AUTO 15004KT 7SM CLR 10/08 A2994 RMK AO2 SLP144 T01000078 10156 20100 50000

KACV 090537Z 0906/1006 12003KT 6SM BR SKC
  FM091100 13006KT 6SM BR SCT003
  TEMPO 0911/0914 2SM BR BKN003
  FM091400 25005KT 2SM BR BKN004
  FM091800 20010KT P6SM SCT005 OVC010
  FM092300 19008KT 5SM BR OVC005


KAJO 090556Z AUTO 10003KT 10SM OVC075 11/07 A3012 RMK AO2 SLP195 T01060072 10150 20100 51015
No TAF found for KAJO

KAPC 090554Z AUTO 27009KT 10SM OVC016 12/09 A2997 RMK AO2 SLP141 T01170089 10156 20111 50008
No TAF found for KAPC

No TAF found for KAPV
KAUN 090635Z AUTO 00000KT 10SM CLR 10/09 A2995 RMK A01
No TAF found for KAUN

KAVX 090551Z AUTO 18007KT 10SM FEW014 SCT050 09/06 A3008 RMK AO2 SLP186 60000 T00890056 10117 20083 50009
No TAF found for KAVX

KBAB 090558Z AUTO 13008KT 10SM CLR 11/09 A2992 RMK AO2 SLP135 T01140093 10164 20114 52012 $

TAF AMD KBAB 090330Z 0903/1009 13009KT 9999 BKN250 QNH2985INS
  BECMG 0910/0911 14009KT 9999 SCT020 BKN030 QNH2989INS
  TEMPO 0913/0917 BKN015
  BECMG 0918/0919 19006KT 9999 SCT030 SCT080 QNH3003INS
  BECMG 1002/1003 VRB06KT 9999 BKN030 QNH2999INS TX17/0922Z TN04/0913Z LAST NO AMDS AFT 0903 NEXT 0913


KBAN 090552Z AUTO VRB06KT 10SM UP SCT020 OVC026 03/M01 A2996 RMK AO2 RAE39UPB39 SLP120 P0001 60005 T00281006 10089 20028 58006 $
No TAF found for KBAN

KBFL 090632Z AUTO 11010KT 10SM OVC030 09/06 A3003 RMK AO2 RAE12 P0000 T00940056

KBFL 090527Z 0906/1006 13009KT P6SM -RA OVC030
  FM090800 12014G20KT 6SM -SHRA BR OVC030
  FM091800 VRB04KT 4SM -RA BR OVC015
  FM092100 24008KT P6SM -RA BKN030 OVC050
  FM100000 30010KT P6SM -SHRA OVC050


KBIH 090646Z AUTO 15013KT 7SM -RA FEW008 BKN018 OVC039 05/03 A2995 RMK AO2 WSHFT 0628 RAB16 P0001 T00500033

KBIH 090546Z 0906/1006 16009KT P6SM VCSH SCT030 BKN060
  TEMPO 0906/0909 -SHRA BKN030
  FM090900 15010KT P6SM -SHRA SCT008 BKN030
  FM091300 VRB05KT P6SM BKN030
  FM091900 15009KT P6SM VCSH SCT030 BKN060
  FM100300 15010KT P6SM FEW060 BKN100


KBLH 090552Z AUTO 20006KT 10SM CLR 12/08 A3006 RMK AO2 SLP177 60003 T01170083 10172 20117 51016

KBLH 090521Z 0906/1006 20005KT P6SM FEW060
  FM100100 23006KT P6SM FEW100
  FM100400 27006KT P6SM SCT080


KBLU 090629Z AUTO 27004KT 1/4SM FG VV001 03/02 A2997 RMK AO2 T00280017 $
No TAF found for KBLU

No TAF found for KBNY
No TAF found for KBUO
KBUR 090553Z 13011KT 10SM -RA FEW023 BKN030 OVC036 10/06 A3009 RMK AO2 RAB33 SLP182 P0000 60000 T01000056 10139 20100 53005

KBUR 090549Z 0906/1006 15010KT P6SM -RA BKN023 BKN035
  FM090900 VRB03KT P6SM VCSH OVC035
  FM091300 13005KT P6SM -SHRA OVC035
  FM091800 17006KT 5SM -RA BR OVC025
  FM092100 17008KT 3SM -RA BR OVC015
  FM100300 VRB03KT P6SM -SHRA OVC025


KBYS 090558Z AUTO 28004KT 10SM BKN049 BKN060 07/03 A3005 RMK AO2 SLP176 T00730027 10096 20067 52016 $
No TAF found for KBYS

No TAF found for KC83
KCCB 090635Z AUTO 00000KT 10SM FEW049 FEW060 OVC070 09/05 A3009 RMK AO2
No TAF found for KCCB

KCCR 090553Z AUTO 24006KT 10SM OVC020 12/08 A2996 RMK AO2 SLP131 T01220083 10161 20117 50006
No TAF found for KCCR

KCEC 090556Z AUTO 17004KT 8SM CLR 12/09 A2995 RMK AO2 SLP142 T01170094 10139 20106 50009

KCEC 090537Z 0906/1006 35007KT 5SM HZ SKC
  FM091000 01004KT 6SM BR SCT300
  FM091600 33008KT P6SM FEW250
  FM092200 17010G18KT 6SM BR SCT005 OVC010


KCIC 090635Z AUTO 00000KT 10SM CLR 14/09 A2995 RMK AO1
No TAF found for KCIC

KCMA 090555Z AUTO 03004KT 10SM -RA FEW055 FEW070 OVC085 13/09 A3008 RMK AO2 RAB07 SLP197 P0001 60001 T01280089 10156 20128 51012

KCMA 090536Z 0906/1006 VRB03KT P6SM BKN050
  FM090900 07006KT P6SM -SHRA OVC035
  FM091200 08006KT P6SM -SHRA BKN025
  FM091800 18010KT 6SM -RA BR OVC015
  FM100200 VRB03KT P6SM VCSH OVC025


KCNO 090553Z AUTO 00000KT 10SM OVC095 11/06 A3012 RMK AO2 SLP198 T01110061 10161 20100 51013
No TAF found for KCNO

KCPU 090635Z AUTO 20007KT 10SM OVC015 11/09 A2995 RMK AO2 T01130087
No TAF found for KCPU

KCQT 090552Z AUTO VRB03KT 10SM SCT055 BKN070 OVC095 13/07 A3009 RMK AO2 RAB24E50 SLP190 P0001 60001 T01280067 10161 20122 51013
No TAF found for KCQT

KCRQ 090626Z AUTO 11006KT 10SM FEW025 BKN030 OVC055 11/08 A3011 RMK AO2 RAB11E20 P0000 T01060083

KCRQ 090520Z 0906/1006 12005KT P6SM VCSH BKN035 BKN050
  FM090700 17010KT P6SM VCSH SCT015 BKN030
  FM091500 VRB04KT P6SM VCSH SCT020 BKN035
  FM092000 23008KT P6SM VCSH SCT020 BKN040
  FM100000 19007KT 5SM SHRA SCT015 BKN025


KCVH 090640Z AUTO 00000KT 10SM OVC025 11/10 A3001 RMK A01
No TAF found for KCVH

No TAF found for KCXL
KCZZ 090552Z AUTO 00000KT 06/04 A3007 RMK AO1 SLP174 T00610044 10100 20056 51010
No TAF found for KCZZ

KDAG 090550Z AUTO 23003KT 10SM CLR 07/04 A3006 RMK AO2 SLP177 60000 T00720044 10122 20072 51015

KDAG 090546Z 0906/1006 25007KT P6SM SCT030 BKN100
  FM091400 07009KT P6SM SCT050 BKN080
  FM091900 VRB05KT P6SM VCSH FEW030 BKN050
  FM092100 15008KT P6SM -SHRA BKN030


No TAF found for KDLO
KDVO 090635Z AUTO 00000KT 10SM OVC016 12/10 A2998 RMK AO2
No TAF found for KDVO

No TAF found for KE16
KEDU 090635Z AUTO 19005KT 10SM CLR 11/09 A2992 RMK AO1
No TAF found for KEDU

KEDW 090558Z AUTO 26009KT 10SM FEW060 OVC085 07/04 A3003 RMK AO2 SLP172 60000 T00700040 10099 20069 51015

TAF AMD KEDW 082225Z 0822/1003 25012G18KT 9000 -SHRA SCT035 BKN050 610505 510009 QNH2990INS
  BECMG 0822/0823 25012G18KT 8000 -SHRA SCT035 OVC050 610506 510009 QNH2992INS
  BECMG 0907/0908 VRB06KT 9000 -SHRA SCT020 OVC030 610606 QNH2992INS
  BECMG 0914/0915 21010G15KT 9999 NSW SCT035 SCT060 BKN120 610606 QNH3002INS
  BECMG 0920/0921 32010G15KT 9000 -SHRA SCT040 BKN060 BKN120 QNH3005INS TX09/0822Z TN03/0913Z LAST NO AMDS AFT 0822 NEXT 0913


KEED 090635Z AUTO 22015KT 10SM -RA OVC050 12/08 A3007 RMK AO2 TSE03 P0014 T01170078

KEED 090546Z 0906/1006 22008KT P6SM VCTS SCT050CB BKN070
  TEMPO 0906/0907 -RA BKN050
  FM090700 25008KT P6SM SCT050 BKN100
  FM090900 VRB06KT P6SM SCT050 SCT100
  FM092100 19008KT P6SM SCT080


No TAF found for KEKA
KEMT 090250Z VRB03KT 10SM BKN035 10/08 A3007
No TAF found for KEMT

No TAF found for KF70
KFAT 090627Z 11011KT 3SM -RA BR BKN006 BKN014 OVC019 10/08 A3000 RMK AO2 P0002 T01000083

KFAT 090527Z 0906/1006 12005KT P6SM SCT010 OVC025
  FM090800 12004KT P6SM OVC010
  FM091200 13005KT 6SM -RA BR BKN030 OVC050
  FM091600 13014G20KT 6SM -RA BR OVC050
  FM091900 VRB04KT P6SM -RA BKN020 OVC050


KFCH 090635Z AUTO 12011KT 2 1/2SM BR 10/10 A3001 RMK A01
No TAF found for KFCH

KFOT 090635Z AUTO 00000KT 3SM OVC003 08/08 A2994 RMK AO1
No TAF found for KFOT

KFUL 090553Z AUTO 10007KT 10SM BKN060 BKN100 OVC110 13/06 A3010 RMK AO2 SLP192 T01330056 10161 20133 51013
No TAF found for KFUL

KGOO 090635Z AUTO 14004KT 10SM BKN006 OVC016 08/07 A2995 RMK A01
No TAF found for KGOO

KGXA 090621Z AUTO 05004KT 10SM SCT080 BKN095 05/03 A3001 RMK AO2 SHRAE06 SLP166 WND DATA ESTMD
No TAF found for KGXA

KHAF 090640Z AUTO 17011KT 10SM OVC016 12/09 A3000 RMK AO2
No TAF found for KHAF

No TAF found for KHES
No TAF found for KHGT
KHHR 090553Z AUTO 08004KT 10SM OVC070 12/07 A3010 RMK AO2 RAE22 SLP192 P0001 60001 T01170072 10156 20117 50012 $
No TAF found for KHHR

KHJO 090648Z AUTO 14009KT 3SM -RA BR BKN008 OVC017 09/09 A3002 RMK AO2 RAB0557 CIG 006V011 P0004
No TAF found for KHJO

No TAF found for KHNX
KHWD 090554Z AUTO 23007KT 10SM BKN022 13/08 A2996 RMK AO2 SLP156 T01280078 10161 20122 58001
No TAF found for KHWD

KIPL 090553Z AUTO 26011KT 10SM CLR 13/03 A3007 RMK AO2 SLP183 T01280033 10183 20122 51020

KIPL 090521Z 0906/1006 26010KT P6SM FEW070
  FM100100 31007KT P6SM SCT060
  PROB30 1001/1006 5SM -SHRA BKN060


No TAF found for KIYK
KIZA 090635Z AUTO 09005KT 10SM OVC050 08/08 A3007 RMK AO2
No TAF found for KIZA

KJAQ 090635Z AUTO 27003KT 10SM BKN007 BKN012 OVC019 11/11 A2994 RMK AO1 T01090109
No TAF found for KJAQ

KL08 090635Z AUTO 00000KT 10SM FEW044 FEW049 11/03 A3008 RMK AO2
No TAF found for KL08

KL18 090635Z AUTO 00000KT 10SM SCT042 BKN050 OVC080 08/08 A3012 RMK AO2 P0001
No TAF found for KL18

KL35 090635Z AUTO 22003KT 10SM BKN013 M03/M06 A3003 RMK AO2
No TAF found for KL35

KL52 090635Z AUTO 13005KT 10SM OVC019 11/09 A3006 RMK A01
No TAF found for KL52

KLAX 090553Z 10005KT 10SM FEW011 SCT029 BKN044 OVC200 12/07 A3009 RMK AO2 RAB08E23 SLP189 P0000 60000 T01220067 10156 20122 51012 $

KLAX 090558Z 0906/1012 10006KT P6SM VCSH SCT030 BKN040
  FM091400 14006KT 5SM -SHRA BKN025
  FM092000 24010KT P6SM -SHRA OVC025
  FM100200 24010KT P6SM -SHRA OVC035
  FM100800 VRB03KT P6SM VCSH OVC050


KLGB 090553Z 05003KT 10SM OVC050 12/07 A3010 RMK AO2 RAB0456E06 SLP192 P0000 60000 T01220072 10150 20122 51012

KLGB 090536Z 0906/1006 VRB03KT P6SM VCSH OVC060
  FM091400 VRB03KT P6SM -SHRA OVC035
  FM091900 21006KT 6SM -RA BR OVC025
  FM092100 21008KT 6SM -RA BR OVC015
  FM100300 VRB03KT P6SM -SHRA OVC025


KLHM 090635Z AUTO 16008KT 10SM 11/09 A2994 RMK AO1
No TAF found for KLHM

No TAF found for KLLR
KLPC 090556Z AUTO 11003KT 10SM OVC030 11/09 A3007 RMK AO2 SLP183 T01110089 10128 20111 51008
No TAF found for KLPC

KLVK 090625Z AUTO 29003KT 10SM SCT019 11/08 A2996 RMK AO2 T01110083

KLVK 090539Z 0906/1006 24005KT P6SM BKN025
  FM091800 30006KT P6SM VCSH SCT025 BKN050
  FM092100 29008KT P6SM BKN050


KMAE 090634Z AUTO 14011KT 10SM OVC013 11/08 A2999 RMK AO2 T01060083
No TAF found for KMAE

KMCC 090635Z AUTO 18010KT 10SM OVC038 11/09 A2994 RMK AO2

KMCC 090520Z 0906/1006 19007KT P6SM BKN200
  FM091100 15008KT P6SM OVC025
  FM091900 16007KT P6SM BKN045
  FM100300 19007KT P6SM BKN070


KMCE 090553Z AUTO 14007KT 10SM OVC017 12/09 A2997 RMK AO2 SLP147 T01220089 10183 20122 50007

KMCE 090527Z 0906/1006 15008KT P6SM OVC020
  FM091200 VRB03KT P6SM -SHRA OVC050
  FM091800 VRB03KT 6SM -RA BKN020 OVC050
  FM100000 00000KT P6SM OVC050


KMER 090615Z AUTO 16008KT 10SM OVC017 12/12 A2997 RMK AO1

KMER 090527Z 0906/1006 15008KT P6SM OVC020
  FM091200 VRB03KT P6SM -SHRA OVC050
  FM091800 VRB03KT 6SM -RA BKN020 OVC050
  FM100000 00000KT P6SM OVC050


KMHR 090545Z 20007KT 10SM BKN042 11/09 A2993

KMHR 090520Z 0906/1006 19008KT P6SM BKN200
  FM091100 15010KT P6SM OVC025
  FM091900 19007KT P6SM BKN045
  FM100300 19007KT P6SM BKN070


KMHS 090556Z AUTO 03003KT 10SM CLR 07/00 A3002 RMK AO2 SLP174 T00670000 10217 20067 50010
No TAF found for KMHS

KMHV 090620Z AUTO 24008KT 8SM FEW017 SCT023 BKN029 04/03 A3004 RMK A01
No TAF found for KMHV

KMMH 090639Z AUTO 00000KT 10SM SCT019 SCT047 OVC065 00/00 A2997 RMK AO2

KMMH 090520Z 0906/1006 VRB04KT P6SM VCSH SCT004 BKN020 OVC035
  TEMPO 0907/0910 3SM -SN BKN012 OVC020
  FM091000 VRB04KT 1SM -SN SCT004 OVC008
  FM091700 VRB04KT 5SM -SN SCT015 OVC025
  FM092200 08006KT P6SM VCSH SCT025 BKN040
  FM100300 VRB04KT P6SM VCSH SCT030 BKN050


KMOD 090553Z AUTO 14005KT 10SM OVC036 14/08 A2994 RMK AO2 SLP139 T01390083 10194 20133 50006

KMOD 090520Z 0906/1006 32005KT P6SM BKN045
  FM090900 24003KT P6SM -SHRA OVC040
  FM091500 06004KT P6SM -SHRA OVC015
  FM091900 12004KT P6SM BKN035 BKN100


KMRY 090642Z AUTO 25007KT 10SM BKN018 13/09 A3000 RMK AO2 T01280094

KMRY 090539Z 0906/1006 24008KT P6SM SCT015 BKN050
  FM090800 22005KT P6SM VCSH BKN015 OVC025
  FM092000 24008KT P6SM SCT015 BKN025


No TAF found for KMWS
KMYF 090553Z AUTO 11005KT 10SM FEW110 11/07 A3012 RMK AO2 SLP197 T01060067 10150 20106 50007
No TAF found for KMYF

KMYV 090553Z AUTO 14008KT 10SM CLR 12/09 A2993 RMK AO2 SLP137 T01220094 10161 20122 51010
No TAF found for KMYV

KNFG 090620Z 05004KT 10SM SCT026 BKN065 OVC080 11/07 A3012 RMK AO2 T01060072 $

TAF KNFG 0903/1003 VRB05KT 9999 VCSH BKN050 QNH3005INS
  TEMPO 0907/0913 6000 -SHRA BKN020
  BECMG 0913/0915 VRB05KT 6000 BR OVC012 QNH3011INS
  FM091730 22008KT 9999 FEW030 SCT060 QNH3009INS T08/0914Z T15/0921Z


No TAF found for KNGZ
KNID 090556Z AUTO 22003KT 10SM SCT019 OVC060 06/05 A3006 RMK AO2 RAB21E51 SLP188 P0000 60002 T00560050 10067 20056 51016 $

TAF AMD KNID 0900/0923 VRB05KT 9999 FEW010 SCT020 BKN040 OVC080 640409 641305 540109 541009 QNH2994NS
  TEMPO 0900/0903 VRB05KT 8000 -RA BR SCT015 BKN020 OVC040
  BECMG 0902/0903 14008G16KT 9999 FEW025 SCT040 VC100 640409 641305 540109 541009 QNH2992INS WND 120V220
  TEMPO 0903/0908 VRB05KT 8000 -RA BR FEW015 BKN025 OVC040
  BECMG 0908/0911 12008KT 6000 -RA BR SCT015 OVC025 640309 641206 540109 541009 QNH2990INS
  TEMPO 0911/0917 VRB05KT 4000 RA BR BKN015 OVC025
  BECMG 0917/0919 04008KT 9999 FEW025 SCT040 OVC100 640409 641305 540109 541009 QNH2995INS
  TEMPO 0917/0923 04010G20KT 9999 SCT025 OVC040 T03/0914Z T11/0922Z LAST NO AMD AFT 0801/ NEXT 0815 AMD 0044


KNJK 090556Z 28014KT 10SM FEW090 13/02 A3010 RMK AO2 SLP207 T01280017 10189 20122 51016 $

TAF KNJK 0823/0923 25018G25KT 9999 FEW060 BKN080 BKN200 620809 520009 QNH2994INS
  FM090700 25005KT 9999 FEW070 FEW200 600000 WSCONDS 530009 QNH3003INS
  FM091200 VRB03KT 9999 FEW050 QNH3005INS
  FM092100 25005KT 9999 BKN070 620703 QNH2999INS T09/0913Z T20/0922Z FS30130


KNKX 090555Z 09005KT 10SM SCT080 BKN100 11/07 A3011 RMK AO2 SLP193 T01060072 10161 20106 50007

TAF KNKX 0903/1003 26006KT 9999 FEW020 SCT030 BKN050 BKN200 QNH3006INS
  BECMG 0915/0917 19010KT 9999 BKN030 OVC050 QNH3000INS
  TEMPO 0917/0923 3200 RA BR BKN020
  FM100230 VRB05KT 4800 -SHRA BKN030 OVC060 QNH3002INS T16/0821Z T08/0814Z


KNLC 090556Z 13014KT 10SM SCT032 OVC041 11/08 A2997 RMK AO2 RAB09E21 SLP150 RH/86 P0000 60000 T01060083 10167 20100 58001

TAF AMD KNLC 0902/0923 14015KT 9999 FEW035 BKN065 BKN120 OVC180 650809 651703 551009 531909 532809 533703 QNH2991INS
  TEMPO 0902/0906 15018G25KT 9999 -RA SCT035 BKN065 OVC090
  FM090600 18012KT 9999 VCSH BKN035 BKN055 OVC070 650809 651703 551009 531909 532809 533703 QNH2985INS
  TEMPO 0909/0915 VRB06KT 6000 -RA BR SCT008 BKN031 OVC050 T08/0913Z T16/0923Z AMD 0255 FS30012


KNRS 090556Z 04005KT 10SM FEW037 SCT060 SCT200 13/09 A3013 RMK AO2 SLP200 6//// T01280089 10150 20128 50005 $
No TAF found for KNRS

KNSI 090553Z AUTO 34003KT 10SM SCT049 09/07 A3007 RMK AO2 SLP180 60005 T00890072 10117 20083 51012
No TAF found for KNSI

KNTD 090552Z 07005KT 10SM -RA SCT027 BKN035 OVC085 12/08 A3009 RMK AO2 RAB24 SLP190 P0000 60000 T01220083 10139 20122 51012 $

TAF KNTD 0823/0923 19011KT 9999 FEW030 SCT050 BKN160 BKN260 QNH2998INS
  FM090200 VRB05KT 9999 VCSH FEW025 SCT050 BKN260 QNH2998INS
  TEMPO 0902/0908 15008KT -SHRA SCT020 BKN045
  FM090800 VRB05KT 9999 -RA SCT020 BKN035 640509 641406 QNH300INS
  TEMPO 0910/0916 07009KT 4800 SHRA BR BKN015
  BECMG 0916/0918 09012G18KT 8000 -RA BR SCT008 OVC025 640509 641406 QNH3000INS AUTOMATED SENSOR METWATCH 0906 TIL 0913 T09/0912Z T15/0921Z FS30101


KNUC 090556Z AUTO 19004KT -RA FEW028 BKN046 OVC055 11/ A3009 RMK AO2 RAB36 SLP188 P0000 60001 T0106 10144 20106 50007 $

TAF KNUC 0823/0923 25011KT 9999 VCSH FEW015 SCT025 SCT150 640409 641307 550909 551809 QNH2995INS
  TEMPO 0823/0900 9000 -SHRA SCT015 BKN025 BKN120
  FM090000 21007KT 9999 VCSH FEW015 SCT025 SCT150 640409 641307 551709 QNH2994INS
  TEMPO 0900/0905 26010KT 8000 SHRA FEW009 SCT015 BKN025 BKN120
  FM090500 18007KT 9999 VCSH FEW012 SCT025 BKN040 BKN120 640409 641307 551709 QNH2996INS
  TEMPO 0905/0911 8000 SHRA FEW008 SCT012 BKN025 OVC030
  BECMG 0911/0912 23010KT 9999 VCSH SCT007 BKN015 OVC050 640509 641401 531709 QNH2997INS
  TEMPO 0912/0917 21007KT 8000 SHRA FEW007 SCT018 BKN030 OVC060
  FM091700 22012KT 9999 VCSH SCT006 BKN012 OVC035 640509 641406 551709 QNH2995INS
  TEMPO 0917/0923 23010KT 6000 +SHRA BKN006 OVC012 LAST NO AMDS AFT 0901 NEXT 0915 T07/0910Z T17/0921Z FS30118


No TAF found for KNUQ
KNXF 090556Z AUTO 06010KT 10SM SCT035 BKN060 OVC090 13/08 A3012 RMK AO2 SLP286 60000 T01280078 10167 20128 50012 $
No TAF found for KNXF

KNXP 090556Z AUTO 00000KT 10SM CLR 08/03 A3012 RMK AO2 SLP185 T00780033 10128 20078 51018

TAF KNXP 0903/1003 VRB06KT 9999 FEW060 QNH3003INS
  TEMPO 0903/0909 30007KT
  TEMPO 0921/1003 18008KT AUTOMATED SENSOR METWATCH 0903 TIL 1003 T06/0911Z T14/0922Z


KNZY 090552Z 16008KT 10SM FEW035 FEW060 SCT110 SCT220 13/08 A3011 RMK AO2 SLP195 T01330078 10161 20133 50005

TAF KNZY 0823/0923 20011KT 9999 VCSH FEW020 SCT050 BKN200 531809 532709 533604 QNH3000INS
  TEMPO 0823/0905 8000 -SHRA SCT010 BKN025 BKN040
  FM090500 19009KT 9999 VCSH SCT015 SCT050 BKN180 531809 532709 533604 QNH3003INS
  TEMPO 0906/0912 18012G22KT 9000 -SHRA BKN015 BKN040
  TEMPO 0918/0923 22010G18KT 8000 -SHRA BR SCT010 BKN025 T11/0913Z T16/0921Z FS30022


No TAF found for KO18
KO22 090635Z AUTO 18003KT 10SM OVC007 10/09 A2995 RMK A01
No TAF found for KO22

KO32 090635Z AUTO 10008KT 3SM BR 09/09 A3002 RMK AO2 P0001
No TAF found for KO32

KO54 090635Z AUTO 00000KT 10SM CLR 08/04 A2999 RMK AO1
No TAF found for KO54

No TAF found for KO57
No TAF found for KO59
KO69 090635Z AUTO 27006KT 10SM OVC012 11/11 A2998 RMK A01
No TAF found for KO69

KO86 090630Z AUTO 26003KT 10SM CLR 07/03 A3000 RMK AO1
No TAF found for KO86

No TAF found for KO87
No TAF found for KO88
KOAK 090553Z 23009KT 10SM FEW010 SCT023 OVC030 14/09 A3000 RMK AO2 SLP157 T01390089 10161 20133 50007

KOAK 090539Z 0906/1012 23010KT P6SM OVC015
  FM091200 20012KT P6SM BKN015
  FM091800 16007KT P6SM SCT015 BKN025
  FM092100 24010KT P6SM FEW015 SCT030 BKN050
  FM100400 24008KT P6SM BKN050
  FM100900 24005KT P6SM SCT015 BKN050


KOKB 090552Z AUTO 13006KT 7SM FEW025 SCT030 SCT055 12/09 A3011 RMK AO2 RAB09E22 SLP195 P0000 60000 T01170089 10161 20117 51001
No TAF found for KOKB

KONT 090553Z 31005KT 10SM FEW027 SCT050 BKN100 BKN150 10/07 A3010 RMK AO2 SLP194 T01000067 10139 20094 51013

KONT 090520Z 0906/1012 VRB04KT P6SM VCSH SCT020 BKN050
  FM092000 24010KT 5SM SHRA SCT020 BKN030
  FM100300 VRB04KT 5SM SHRA SCT015 BKN025


KOVE 090453Z AUTO 11006KT 10SM CLR 14/09 A2993 RMK AO2 SLP137 T01440094
No TAF found for KOVE

KOXR 090551Z AUTO 08004KT 10SM FEW043 OVC070 12/08 A3008 RMK AO2 RAB22E49 SLP187 P0000 60000 T01220078 10139 20122 51013

KOXR 090536Z 0906/1006 17005KT P6SM BKN100
  FM090900 07006KT P6SM -SHRA OVC035
  FM091200 07006KT P6SM -SHRA BKN025
  FM091800 19010KT 6SM -RA BR OVC015
  FM100300 VRB03KT P6SM VCSH OVC025


KPAO 090347Z 22009KT 10SM FEW030 OVC080 13/09 A2998 RMK LAST
No TAF found for KPAO

KPMD 090553Z AUTO 20009KT 10SM -RA OVC044 07/03 A3005 RMK AO2 RAB42 SLP176 P0000 60000 T00720028 10100 20072 51017

KPMD 090536Z 0906/1006 21010KT P6SM VCSH OVC050
  FM091800 08006KT 4SM -RA BR BKN025
  FM092300 11008KT 4SM -RA BR OVC050
  FM100400 20008KT P6SM -SHRA OVC050


KPOC 090347Z 00000KT 10SM BKN045 09/07 A3009
No TAF found for KPOC

KPRB 090553Z AUTO 22008KT 10SM OVC010 10/08 A3001 RMK AO2 CIG 009V013 SLP163 T01000083 10111 20100 51003

KPRB 090538Z 0906/1006 21006KT P6SM BKN012 OVC035
  FM090800 VRB03KT P6SM VCSH OVC025
  FM091300 15005KT 4SM -SHRA BKN015
  FM092200 19010KT 5SM BR OVC025
  FM100400 VRB03KT P6SM OVC050


KPSP 090553Z AUTO 32003KT 10SM CLR 13/06 A3007 RMK AO2 SLP185 T01280061 10172 20122 51017

KPSP 090520Z 0906/1006 33008KT P6SM BKN100
  FM091500 35007KT P6SM VCSH SCT040 BKN060
  FM100000 33007KT 6SM SHRA SCT025 BKN035


KPTV 090637Z AUTO 18005KT 9SM RA BKN024 OVC031 09/08 A3004 RMK AO2 P0011
No TAF found for KPTV

KPVF 090635Z AUTO 20006KT 10SM SCT005 BKN010 OVC015 09/09 A2996 RMK AO1
No TAF found for KPVF

KRAL 090553Z AUTO 00000KT 10SM BKN060 OVC085 11/05 A3011 RMK AO2 SLP187 T01060050 10156 20094 51016
No TAF found for KRAL

KRBL 090554Z AUTO 00000KT 10SM CLR 13/10 A2994 RMK AO2 SLP137 T01280100 10300 20122 51025

KRBL 090520Z 0906/1006 16005KT P6SM SCT250
  FM092100 17011KT P6SM SCT250


KRDD 090553Z AUTO 17004KT 10SM CLR 14/10 A2994 RMK AO2 SLP135 T01390100 10294 20133 51037

KRDD 090520Z 0906/1006 18004KT P6SM SCT250
  FM092300 17009KT P6SM SCT250


No TAF found for KREI
KRHV 090452Z 14007KT 10SM BKN030 13/08 A2999
No TAF found for KRHV

KRIV 090636Z AUTO 13004KT 9SM -RA FEW003 SCT022 BKN030 OVC048 08/05 A3010 RMK AO2 RAB29 SLP194

TAF KRIV 090413Z 0904/1010 16009KT 9999 VCSH SCT020 BKN030 OVC060 620405 QNH3005INS
  TEMPO 0904/0910 -SHRA SCT020 OVC030
  BECMG 0911/0912 15009KT 9999 -SHRA SCT015 BKN025 OVC040 620409 QNH3008INS
  TEMPO 0912/0915 8000 -SHRA BR SCT008 BKN015 OVC025
  BECMG 0914/0915 13009KT 8000 -RA BR SCT005 OVC015 620409 621305 540509 QNH3010INS
  BECMG 0917/0918 13009KT 8000 -RA BR SCT003 OVC010 620409 621305 540509 QNH3006INS
  TEMPO 0918/0921 13010G15KT 6000 RA BR OVC007
  BECMG 0920/0921 13010KT 6000 -RA BR FEW005 OVC015 620409 621305 540509 QNH3003INS WND 100V210
  TEMPO 0921/1003 16012G18KT 4800 RA BR SCT005 OVC010
  BECMG 1004/1005 15009KT 4800 -RA BR SCT007 OVC010 620409 621305 540509 QNH3006INS TX11/0921Z TN06/0913Z


KRNM 090553Z AUTO 00000KT 10SM FEW055 05/04 A3011 RMK AO2 SLP197 60000 T00500044 10111 20050 50009
No TAF found for KRNM

KSAC 090553Z AUTO 21009KT 10SM FEW039 11/08 A2994 RMK AO2 SLP139 T01110083 10172 20111 53013

KSAC 090520Z 0906/1006 20007KT P6SM BKN200
  FM091100 19010KT P6SM OVC025
  FM091900 19009KT P6SM BKN045
  FM100300 20005KT P6SM BKN070


KSAN 090551Z 17007KT 10SM FEW035 SCT065 SCT110 BKN220 16/08 A3013 RMK AO2 SLP201 VCSH T01560083 10167 20156 50005

KSAN 090520Z 0906/1012 22006KT P6SM VCSH SCT030 BKN060
  FM090800 19011KT P6SM VCSH SCT015 BKN020
  FM091500 19005KT P6SM VCSH SCT025 BKN040
  FM092100 21010KT P6SM VCSH SCT025 BKN050
  FM100200 21008KT 6SM -SHRA SCT015 BKN030
  FM100600 20012KT 5SM SHRA SCT015 BKN025


KSBA 090553Z 08006KT 10SM OVC055 12/09 A3007 RMK AO2 RAE0457B20E31 SLP183 P0000 60000 T01170089 10144 20117 51011

KSBA 090536Z 0906/1006 04005KT P6SM -RA BKN060
  FM091000 10006KT 5SM -SHRA BR OVC025
  FM091500 12008KT 4SM -RA BKN015
  FM092100 16005KT 6SM BR OVC010
  FM100200 VRB03KT P6SM OVC025


KSBD 090640Z AUTO 08005KT 10SM SCT031 SCT065 BKN120 10/06 A3012 RMK AO2 T00950057

KSBD 090520Z 0906/1006 VRB04KT P6SM VCSH SCT025 BKN045
  FM092000 24010KT 5SM SHRA SCT020 BKN030
  FM100300 VRB04KT 5SM SHRA SCT015 BKN025


KSBP 090612Z AUTO 12004KT 8SM -RA BKN014 OVC020 11/09 A3005 RMK AO2 RAB01 P0000 T01060094

KSBP 090618Z 0906/1006 11006KT P6SM -RA BKN014 OVC020
  FM090900 VRB03KT P6SM VCSH OVC025
  FM091400 16006KT 4SM -SHRA OVC025
  FM091800 18008KT 2SM -RA OVC015
  FM092300 19006KT 5SM BR OVC025
  FM100300 VRB03KT P6SM OVC050


KSCK 090555Z AUTO 32005KT 10SM FEW036 OVC049 14/10 A2994 RMK AO2 SLP139 T01390100 10211 20139 51010

KSCK 090520Z 0906/1006 30006KT P6SM OVC035
  FM091000 VRB04KT P6SM -SHRA OVC025
  FM091400 VRB04KT P6SM OVC015
  FM091900 14005KT P6SM BKN035 BKN100


KSDB 090607Z AUTO 17017G26KT 1/4SM -SN FG VV002 01/00 A3001 RMK AO2 PK WND 18026/0600 P0000 T00110000 $
No TAF found for KSDB

KSDM 090553Z AUTO 12005KT 10SM CLR 10/07 A3012 RMK AO2 SLP198 60013 T01000072 10150 20094 50000
No TAF found for KSDM

KSEE 090635Z AUTO 15003KT 10SM BKN034 BKN041 BKN050 11/07 A3012 RMK AO2
No TAF found for KSEE

KSFO 090556Z 00000KT 10SM FEW021 SCT026 SCT200 12/08 A2997 RMK AO2 SLP150 T01170078 10150 20111 50007

KSFO 090539Z 0906/1012 19007KT P6SM BKN015
  FM091800 15006KT P6SM FEW015 BKN025
  FM092000 VRB05KT P6SM FEW015 SCT025 BKN050
  FM092300 27012KT P6SM FEW025 BKN050
  FM100500 25005KT P6SM BKN050


KSIY 090553Z AUTO 36009KT 10SM CLR 13/M01 A3002 RMK AO2 SLP166 T01331006 10256 20117 50013
No TAF found for KSIY

KSJC 090553Z 18009KT 10SM FEW004 SCT030 BKN050 12/07 A2997 RMK AO2 SLP148 T01220067 10178 20122 50004

KSJC 090539Z 0906/1006 24004KT P6SM SCT025 BKN050 BKN100
  FM090700 14008KT P6SM VCSH SCT025 BKN050 BKN100
  FM091000 14014KT P6SM BKN025
  FM091800 14010KT P6SM SCT030 BKN050
  FM100400 14006KT P6SM BKN050


KSLI 090621Z AUTO 11007KT 10SM -RA SCT033 BKN047 OVC060 12/04 A3010 RMK AO2 RAB21 SLP196

TAF KSLI 090504Z 0905/1011 VRB06KT 9999 OVC070 QNH3005INS
  BECMG 0910/0911 VRB06KT 9999 -RA BKN020 QNH3005INS
  TEMPO 0915/0919 8000 RA BKN010
  BECMG 0919/0920 VRB06KT 9999 -RA BKN010 QNH2994INS
  TEMPO 0920/1011 8000 RA BKN005 TX16/0906Z TN11/0912Z


KSMF 090553Z 17011KT 10SM SCT180 SCT250 11/09 A2992 RMK AO2 SLP132 T01110089 10161 20111 51013

KSMF 090520Z 0906/1006 16010KT P6SM BKN200
  FM091100 15010KT P6SM OVC025
  FM091900 16009KT P6SM BKN045
  FM100300 17007KT P6SM BKN070


KSMO 090551Z AUTO 09006KT 10SM SCT033 BKN043 OVC070 11/07 A3010 RMK AO2 RAB09E51 SLP191 P0001 60001 T01110072 10144 20111 51013

KSMO 090536Z 0906/1006 VRB03KT P6SM SCT030 OVC100
  FM091500 10005KT P6SM -SHRA OVC035
  FM091800 20006KT 6SM -RA BR OVC025
  FM092100 20010KT 6SM -RA BR OVC015
  FM100300 VRB03KT P6SM -SHRA OVC025


KSMX 090626Z AUTO 15008KT 10SM BKN029 OVC035 11/07 A3006 RMK AO2 T01110067

KSMX 090536Z 0906/1006 VRB03KT P6SM FEW021 BKN029
  FM090900 16005KT P6SM VCSH BKN025
  FM091500 17008KT 4SM -SHRA OVC025
  FM091800 16010KT 2SM -RA OVC015
  FM092300 17008KT 4SM BR VCSH OVC025
  FM100300 VRB03KT P6SM OVC050


KSNA 090553Z 06004KT 10SM SCT034 BKN045 BKN060 14/08 A3010 RMK AO2 SLP192 LAST 60007 T01390083 10167 20133 50008

KSNA 090520Z 0906/1006 VRB04KT P6SM VCSH SCT015 BKN030
  FM091700 VRB04KT P6SM VCSH SCT030 BKN050
  FM092000 19011G20KT 5SM SHRA SCT020 BKN030
  FM100200 19007KT 5SM SHRA SCT015 BKN025


KSNS 090553Z AUTO 28007KT 10SM OVC012 12/09 A2999 RMK AO2 SLP166 T01220094 10139 20122 50003

KSNS 090539Z 0906/1006 32005KT P6SM VCSH BKN015 BKN030
  FM091100 13008KT P6SM VCSH OVC015
  FM092000 24006KT P6SM BKN025


KSQL 090635Z AUTO 00000KT 10SM CLR 12/09 A2998 RMK AO2
No TAF found for KSQL

KSTS 090641Z AUTO 00000KT 6SM BR OVC009 11/09 A2997 RMK AO2 RAB24E38 CIG 006V012 P0000 T01060094

KSTS 090539Z 0906/1006 VRB04KT P6SM OVC015
  FM092100 19007KT P6SM SCT020 BKN050
  FM100300 VRB03KT P6SM OVC015


KSUU 090608Z AUTO 23018KT 10SM OVC015 12/08 A2994 RMK AO2 SLP145 $

TAF AMD KSUU 090545Z 0905/1009 23015G25KT 9999 BKN015 QNH2989INS
  TEMPO 0905/0909 SCT015 BKN150
  BECMG 0911/0912 23012G18KT 9000 -SHRA BKN010 OVC025 QNH2994INS
  BECMG 0920/0921 23012KT 9999 NSW BKN020 OVC030 QNH2998INS TX17/0923Z TN09/0914Z


KSVE 090635Z AUTO 03012G15KT 10SM CLR 14/M03 A2998 RMK AO2
No TAF found for KSVE

KTCY 090635Z AUTO 14007KT 10SM OVC049 13/11 A2995 RMK A01
No TAF found for KTCY

KTOA 090247Z 18004KT 10SM FEW027 FEW060 BKN200 13/08 A3006 RMK LAST
No TAF found for KTOA

KTRK 090635Z AUTO 19004KT 10SM BKN095 00/M02 A2998 RMK AO2

KTRK 090520Z 0906/1006 VRB04KT P6SM FEW050 SCT090 BKN180
  FM091100 VRB04KT P6SM VCSH SCT035 BKN060
  FM091600 35006KT P6SM VCSH SCT030 BKN050
  FM092300 16008KT P6SM SCT050 BKN090
  FM100300 VRB03KT P6SM FEW050 SCT090 BKN140


KTRM 090552Z AUTO 34005KT 10SM CLR 13/05 A3005 RMK AO2 SLP175 60000 T01330050 10189 20133 51018

KTRM 090520Z 0906/1006 32009KT P6SM BKN100
  FM091500 35007KT P6SM VCSH SCT040 BKN070
  FM100100 33012KT 6SM SHRA SCT025 BKN040


KTSP 090635Z AUTO 11004KT 7SM -RA FEW006 FEW015 OVC045 00/00 A3003 RMK AO2
No TAF found for KTSP

KTVL 090553Z AUTO 00000KT 10SM CLR 06/M01 A2995 RMK AO2 SLP116 T00561011 10111 20044 58003

KTVL 090520Z 0906/1006 VRB04KT P6SM VCSH FEW050 BKN090
  FM090900 18008KT P6SM VCSH SCT040 BKN080
  FM091400 19006KT 5SM -RASN SCT020 OVC030
  FM091900 04006KT P6SM -RA SCT025 OVC040
  FM100200 VRB03KT 6SM -RA BR SCT020 OVC030
  FM100500 VRB03KT 2SM BR SCT015 OVC030


KUKI 090640Z AUTO 17006KT 10SM FEW008 11/08 A2994 RMK AO2 T01060083

KUKI 090537Z 0906/1006 15006KT P6SM SCT100
  FM091000 16008KT P6SM SCT006 SCT200 WS020/06030KT
  FM091300 14014G22KT P6SM BKN008
  FM091800 15009KT P6SM SCT035
  FM092300 32010KT P6SM OVC020


KVBG 090643Z AUTO 18006KT 7SM BKN006 OVC024 10/09 A3007 RMK AO2 SLP186

TAF KVBG 082210Z 0822/1004 25009KT 9999 FEW020 BKN085 BKN200 QNH3001INS
  BECMG 0906/0907 19009KT 9999 VCSH SCT015 BKN025 OVC040 610509 QNH2999INS
  BECMG 0909/0910 16012KT 9000 -SHRA BR SCT010 BKN020 OVC035 610509 QNH3000INS
  TEMPO 0914/0920 15012G20KT 6000 -SHRA BR BKN010 OVC020
  BECMG 1001/1002 14012KT 9999 NSW SCT020 BKN040 OVC080 620808 QNH3003INS TX15/0920Z TN09/0914Z LAST NO AMDS AFT 0900 NEXT 0914


KVCB 090553Z AUTO 21011G17KT 10SM CLR 12/08 A2991 RMK AO2 SLP128 6//// T01220083 10178 20122 50007 PNO
No TAF found for KVCB

KVCV 090248Z 17009KT 10SM BKN040 A3000
No TAF found for KVCV

KVIS 090608Z AUTO 13010KT 10SM -RA FEW007 OVC023 09/09 A3001 RMK AO2 P0001

KVIS 090527Z 0906/1006 14009KT P6SM OVC025
  FM091200 13015G22KT 6SM -RA BR BKN015 OVC025
  FM091500 14014G20KT 4SM -RA BR BKN015 OVC030
  FM091800 VRB04KT 4SM -RA BR OVC015
  FM100200 00000KT P6SM OVC050


KVNY 090632Z AUTO 12006KT 6SM RA FEW025 BKN033 OVC042 10/07 A3008 RMK AO2 P0008 T01000067

KVNY 090608Z 0906/1006 10006KT P6SM -RA BKN020 BKN028
  FM091300 14005KT P6SM -SHRA OVC035
  FM091800 16006KT 5SM -RA BR OVC025
  FM092100 17008KT 3SM -RA BR OVC015
  FM100300 VRB03KT P6SM -SHRA OVC025


KWHP 090255Z 00000KT 10SM OVC050 11/04 A3008
No TAF found for KWHP

KWJF 090642Z AUTO 18007KT 9SM -RA BKN026 BKN035 OVC045 07/04 A3006 RMK AO2 RAB0559 P0001 T00720039

KWJF 090536Z 0906/1006 24008KT P6SM VCSH OVC040
  FM091800 08006KT 4SM -RA BR BKN025
  FM092300 08010KT 4SM -RA BR OVC050
  FM100400 23008KT P6SM -SHRA OVC050


KWVI 090632Z AUTO 30003KT 10SM FEW017 OVC028 11/10 A3000 RMK AO2 T01110100
No TAF found for KWVI

No TAF found for KXVW